2 luglio 2022

Tempo Codice Tempo metereologico Temp. Vista Base nuvolosa Vento METAR/SPECI
9:00 am
V
61 °F 6¼ mi+ - 100° 100° 4 kt METAR LFLW 020700Z AUTO 10004KT 070V130 CAVOK 16/10 Q1021 NOSIG
8:30 am
V
57 °F 6¼ mi+ - 080° 080° 7 kt METAR LFLW 020630Z AUTO 08007KT CAVOK 14/09 Q1021 NOSIG
8:00 am
V
54 °F 6¼ mi+ - 100° 100° 5 kt METAR LFLW 020600Z AUTO 10005KT CAVOK 12/08 Q1021 NOSIG
7:30 am
V
52 °F 6¼ mi+ - 090° 090° 6 kt METAR LFLW 020530Z AUTO 09006KT CAVOK 11/08 Q1021 NOSIG
7:00 am
V
46 °F 6¼ mi+ - 070° 070° 8 kt METAR LFLW 020500Z AUTO 07008KT CAVOK 08/07 Q1021
6:30 am
V
45 °F 6¼ mi+ - 070° 070° 6 kt METAR LFLW 020430Z AUTO 07006KT CAVOK 07/06 Q1021
6:00 am
V
45 °F 6¼ mi+ - 070° 070° 6 kt METAR LFLW 020400Z AUTO 07006KT CAVOK 07/07 Q1021
5:30 am
V
45 °F 6¼ mi+ - Var Var 3 kt METAR LFLW 020330Z AUTO VRB03KT CAVOK 07/06 Q1021
5:00 am
V
45 °F 6¼ mi+ - Var Var 2 kt METAR LFLW 020300Z AUTO VRB02KT CAVOK 07/07 Q1021
4:30 am
V
45 °F 6¼ mi+ - 100° 100° 3 kt METAR LFLW 020230Z AUTO 10003KT CAVOK 07/07 Q1021
4:00 am
V
46 °F 6¼ mi+ - Var Var 2 kt METAR LFLW 020200Z AUTO VRB02KT CAVOK 08/07 Q1022
3:30 am
V
46 °F 6¼ mi+ - Var 000° 0 kt METAR LFLW 020130Z AUTO 00000KT CAVOK 08/08 Q1021
3:00 am
V
46 °F 6¼ mi+ - 170° 170° 2 kt METAR LFLW 020100Z AUTO 17002KT CAVOK 08/07 Q1021
2:30 am
V
46 °F 6¼ mi+ - Var Var 3 kt METAR LFLW 020030Z AUTO VRB03KT CAVOK 08/07 Q1021
2:00 am
V
46 °F 6¼ mi+ - 070° 070° 4 kt METAR LFLW 020000Z AUTO 07004KT CAVOK 08/07 Q1021
1:30 am
V
48 °F 6¼ mi+ - 120° 120° 4 kt METAR LFLW 012330Z AUTO 12004KT CAVOK 09/08 Q1022
1:00 am
V
50 °F 6¼ mi+ - 130° 130° 3 kt METAR LFLW 012300Z AUTO 13003KT CAVOK 10/08 Q1022 NOSIG
12:30 am
V
50 °F 6¼ mi+ - 110° 110° 3 kt METAR LFLW 012230Z AUTO 11003KT CAVOK 10/09 Q1022 NOSIG
12:00 am
V
52 °F 6¼ mi+ - 130° 130° 3 kt METAR LFLW 012200Z AUTO 13003KT CAVOK 11/09 Q1022 NOSIG

1 luglio 2022

Tempo Codice Tempo metereologico Temp. Vista Base nuvolosa Vento METAR/SPECI
11:30 pm
V
55 °F 6¼ mi+ - Var Var 2 kt METAR LFLW 012130Z AUTO VRB02KT CAVOK 13/09 Q1022 NOSIG
11:00 pm
V
55 °F 6¼ mi+ - Var Var 1 kt METAR LFLW 012100Z AUTO VRB01KT CAVOK 13/09 Q1022 NOSIG
10:30 pm
V
59 °F 6¼ mi+ - 300° 300° 2 kt METAR LFLW 012030Z AUTO 30002KT CAVOK 15/09 Q1022 NOSIG
10:00 pm
V
61 °F 6¼ mi+ - Var Var 2 kt METAR LFLW 012000Z AUTO VRB02KT CAVOK 16/09 Q1021 NOSIG
9:30 pm
V
63 °F 6¼ mi+ - 330° 330° 3 kt METAR LFLW 011930Z AUTO 33003KT 290V360 CAVOK 17/09 Q1021 NOSIG
9:00 pm
V
64 °F 6¼ mi+ - 320° 320° 3 kt METAR LFLW 011900Z AUTO 32003KT 270V020 CAVOK 18/09 Q1021 NOSIG
8:30 pm
V
66 °F 6¼ mi+ - 300° 300° 5 kt METAR LFLW 011830Z AUTO 30005KT 280V350 CAVOK 19/09 Q1021 NOSIG
8:00 pm
V
66 °F 6¼ mi+ - 330° 330° 5 kt METAR LFLW 011800Z AUTO 33005KT 280V010 CAVOK 19/09 Q1021 NOSIG
7:30 pm
V
68 °F 6¼ mi+ - 300° 300° 5 kt METAR LFLW 011730Z AUTO 30005KT 250V360 CAVOK 20/10 Q1021 NOSIG
7:00 pm
V
68 °F 6¼ mi+ - 290° 290° 7 kt METAR LFLW 011700Z AUTO 29007KT 240V330 CAVOK 20/10 Q1021 NOSIG
6:30 pm
V
68 °F 6¼ mi+ - 290° 290° 6 kt METAR LFLW 011630Z AUTO 29006KT 240V330 CAVOK 20/10 Q1021 NOSIG
6:00 pm
V
68 °F 6¼ mi+ - 290° 290° 6 kt METAR LFLW 011600Z AUTO 29006KT 240V340 CAVOK 20/10 Q1021 NOSIG
5:30 pm
V
68 °F 6¼ mi+ - 330° 330° 5 kt METAR LFLW 011530Z AUTO 33005KT 260V010 CAVOK 20/10 Q1021 NOSIG
5:00 pm
V
68 °F 6¼ mi+ - 300° 300° 5 kt METAR LFLW 011500Z AUTO 30005KT 240V030 CAVOK 20/10 Q1021 NOSIG
4:30 pm
V
68 °F 6¼ mi+ - 280° 280° 5 kt METAR LFLW 011430Z AUTO 28005KT 230V010 CAVOK 20/11 Q1021 NOSIG
4:00 pm
V
66 °F 6¼ mi+ - 310° 310° 7 kt METAR LFLW 011400Z AUTO 31007KT 240V360 CAVOK 19/10 Q1021 NOSIG
3:30 pm
V
66 °F 6¼ mi+ - 300° 300° 5 kt METAR LFLW 011330Z AUTO 30005KT 230V360 CAVOK 19/09 Q1021 NOSIG
3:00 pm
V
66 °F 6¼ mi+ - Var Var 5 kt METAR LFLW 011300Z AUTO VRB05KT CAVOK 19/09 Q1021 NOSIG
2:30 pm
V
64 °F 6¼ mi+ - 300° 300° 5 kt METAR LFLW 011230Z AUTO 30005KT 210V360 CAVOK 18/09 Q1021 NOSIG
1:30 pm
V
64 °F 6¼ mi+ - 290° 290° 6 kt METAR LFLW 011130Z AUTO 29006KT 230V340 CAVOK 18/09 Q1022 NOSIG
1:00 pm
V
64 °F 6¼ mi+ - 280° 280° 6 kt METAR LFLW 011100Z AUTO 28006KT 220V330 CAVOK 18/10 Q1022 NOSIG
12:30 pm
V
61 °F 6¼ mi+ - 300° 300° 5 kt METAR LFLW 011030Z AUTO 30005KT 240V360 CAVOK 16/10 Q1022 NOSIG
12:00 pm
V
63 °F 6¼ mi+ - 290° 290° 5 kt METAR LFLW 011000Z AUTO 29005KT 240V020 CAVOK 17/09 Q1021 NOSIG
11:30 am
V
61 °F 6¼ mi+ - 300° 300° 4 kt METAR LFLW 010930Z AUTO 30004KT 220V030 9999 FEW025 16/09 Q1021 NOSIG
11:00 am
V
61 °F 6¼ mi+ - 300° 300° 5 kt METAR LFLW 010900Z AUTO 30005KT 240V010 9999 FEW023 SCT030 16/10 Q1021 NOSIG
10:30 am
V
59 °F 6¼ mi+ - 340° 340° 5 kt METAR LFLW 010830Z AUTO 34005KT 250V020 9999 FEW021 15/10 Q1021 NOSIG
10:00 am
V
57 °F 6¼ mi+ - 330° 330° 5 kt METAR LFLW 010800Z AUTO 33005KT 280V020 9999 FEW015 14/10 Q1021 NOSIG
9:30 am
V
57 °F 6¼ mi+ - 330° 330° 6 kt METAR LFLW 010730Z AUTO 33006KT 280V030 9999 FEW013 14/10 Q1021 NOSIG
9:00 am
M
54 °F 6¼ mi+ 1.400 ft 310° 310° 4 kt METAR LFLW 010700Z AUTO 31004KT 260V360 9999 BKN014 12/10 Q1021 BECMG NSC
8:30 am
I
54 °F 6¼ mi+ 700 ft Var Var 3 kt METAR LFLW 010630Z AUTO VRB03KT 9999 BKN007 12/10 Q1021 BECMG NSC
8:00 am
I
52 °F 6¼ mi+ 700 ft 310° 310° 4 kt METAR LFLW 010600Z AUTO 31004KT 260V340 9999 OVC007 11/09 Q1021 BECMG NSC
7:30 am
I
50 °F 6¼ mi+ 700 ft Var Var 2 kt METAR LFLW 010530Z AUTO VRB02KT 9999 BKN007 BKN011 10/10 Q1021 BECMG NSC
7:00 am
V
50 °F 6¼ mi+ - Var Var 3 kt METAR LFLW 010500Z AUTO VRB03KT 9999 FEW008 10/09 Q1021
6:30 am
I
50 °F 6¼ mi+ 700 ft Var Var 3 kt METAR LFLW 010430Z AUTO VRB03KT 9999 OVC007 10/10 Q1021
6:00 am
I
50 °F 6¼ mi+ 800 ft 300° 300° 3 kt METAR LFLW 010400Z AUTO 30003KT 260V340 9999 OVC008 10/09 Q1021
5:30 am
I
50 °F 6¼ mi+ 700 ft Var Var 2 kt METAR LFLW 010330Z AUTO VRB02KT 9999 OVC007 10/10 Q1021
5:00 am
I
52 °F 6¼ mi+ 500 ft Var Var 1 kt METAR LFLW 010300Z AUTO VRB01KT 9999 OVC005 11/10 Q1021
4:30 am
L
52 °F 6¼ mi+ 400 ft Var Var 2 kt METAR LFLW 010230Z AUTO VRB02KT 9999 BKN004 OVC013 11/10 Q1021
4:00 am
L
50 °F 6¼ mi+ 200 ft 300° 300° 3 kt METAR LFLW 010200Z AUTO 30003KT 270V330 9999 BKN002 BKN007 BKN012 10/10 Q1021
3:30 am
I
52 °F 6¼ mi+ 600 ft 300° 300° 3 kt METAR LFLW 010130Z AUTO 30003KT 260V330 9999 BKN006 OVC033 11/10 Q1021
3:00 am
I
52 °F 6¼ mi+ 800 ft Var Var 3 kt METAR LFLW 010100Z AUTO VRB03KT 9999 BKN008 BKN013 OVC026 11/10 Q1021
2:30 am
I
52 °F 6¼ mi+ 600 ft 290° 290° 4 kt METAR LFLW 010030Z AUTO 29004KT 260V320 9999 BKN006 OVC013 11/10 Q1021
2:00 am
I
52 °F 6¼ mi+ 900 ft 310° 310° 3 kt METAR LFLW 010000Z AUTO 31003KT 260V350 9999 BKN009 BKN013 OVC020 11/10 Q1021
1:30 am
I
52 °F 6¼ mi+ 700 ft 320° 320° 3 kt METAR LFLW 302330Z AUTO 32003KT 280V360 9999 OVC007 11/10 Q1021
1:00 am
I
52 °F 6¼ mi+ 900 ft 300° 300° 4 kt METAR LFLW 302300Z AUTO 30004KT 250V350 9999 OVC009 11/10 Q1021 TEMPO VV/// BECMG 4000 BR
12:30 am
I
52 °F 6¼ mi+ 800 ft 290° 290° 4 kt METAR LFLW 302230Z AUTO 29004KT 240V010 9999 OVC008 11/11 Q1020 TEMPO VV/// BECMG 4000 BR
12:00 am
L
52 °F 6¼ mi+ 300 ft 300° 300° 4 kt METAR LFLW 302200Z AUTO 30004KT 260V340 9999 BKN003/// OVC010/// ///TCU 11/11 Q1020 TEMPO 0600 FG VV///

30 giugno 2022

Tempo Codice Tempo metereologico Temp. Vista Base nuvolosa Vento METAR/SPECI
11:30 pm
I
52 °F 6¼ mi+ 500 ft 300° 300° 4 kt METAR LFLW 302130Z AUTO 30004KT 250V340 9999 BKN005/// OVC080/// ///CB 11/11 Q1020 TEMPO 0600 FG VV///
11:00 pm
V
54 °F 6¼ mi+ 10.000 ft 310° 310° 3 kt METAR LFLW 302100Z AUTO 31003KT 260V350 9999 FEW007/// SCT078/// BKN100/// ///TCU 12/11 Q1020 TEMPO 0600 FG VV///
10:30 pm
V
54 °F 6¼ mi+ 9.400 ft 310° 310° 3 kt METAR LFLW 302030Z AUTO 31003KT 270V360 9999 SCT017 SCT068 BKN094 12/11 Q1019 TEMPO 0600 FG VV///
10:00 pm
M
54 °F 6¼ mi+ 1.700 ft Var Var 2 kt METAR LFLW 302000Z AUTO VRB02KT 9999 FEW012 BKN017 BKN062 12/11 Q1019 BECMG 4000 BR
9:30 pm
M
54 °F 6¼ mi+ 1.700 ft Var Var 3 kt METAR LFLW 301930Z AUTO VRB03KT 9999 BKN017/// BKN088/// OVC130/// ///TCU 12/11 Q1019 BECMG 4000 BR FEW010 BKN020
9:00 pm
V
54 °F 6¼ mi+ - 280° 280° 3 kt METAR LFLW 301900Z AUTO 28003KT 250V320 CAVOK 12/11 Q1019 BECMG 4000 BR
8:30 pm
V
54 °F 6¼ mi+ - Var Var 3 kt METAR LFLW 301830Z AUTO VRB03KT 9999 ///TCU 12/11 Q1019 BECMG 4000 BR FEW010 BKN020
8:00 pm
V
54 °F 6¼ mi+ 7.000 ft Var Var 3 kt METAR LFLW 301800Z AUTO VRB03KT 9999 -RA FEW044/// BKN070/// BKN088/// ///TCU 12/11 Q1018 TEMPO 3000 -RA BECMG FEW010 BKN020
7:30 pm
V
54 °F 6¼ mi+ 6.800 ft 300° 300° 3 kt METAR LFLW 301730Z AUTO 30003KT 260V350 9999 -RA SCT008/// SCT034/// BKN068/// ///TCU 12/11 Q1018 TEMPO 3000 -RA BECMG FEW010 BKN020
7:00 pm
I
55 °F 6¼ mi+ 900 ft 300° 300° 5 kt METAR LFLW 301700Z AUTO 30005KT 250V330 9999 -RA BKN009/// BKN014/// OVC076/// ///CB 13/12 Q1018 TEMPO 3000 -RA BKN006
6:30 pm
M
55 °F 6¼ mi+ 1.000 ft 310° 310° 5 kt METAR LFLW 301630Z AUTO 31005KT 250V360 9999 -RA BKN010/// BKN016/// OVC066/// ///TCU 13/11 Q1018 TEMPO 3000 -RA BKN006
6:00 pm
M
57 °F 6¼ mi+ 1.100 ft 320° 320° 6 kt METAR LFLW 301600Z AUTO 32006KT 250V350 9999 BKN011/// BKN021/// BKN044/// ///TCU 14/11 Q1018 TEMPO 3000 -RA BKN006
5:30 pm
I
57 °F 6¼ mi+ 800 ft 300° 300° 8 kt METAR LFLW 301530Z AUTO 30008KT 270V010 9999 BKN008/// OVC018/// ///TCU 14/11 Q1018 TEMPO 3000 -RA BKN006
5:00 pm
M
57 °F 6¼ mi+ 2.100 ft 320° 320° 5 kt METAR LFLW 301500Z AUTO 32005KT 250V360 9999 FEW013 BKN021 BKN027 14/11 Q1018 TEMPO 3000 RA BKN004
4:30 pm
I
57 °F 6¼ mi+ 900 ft 320° 320° 5 kt METAR LFLW 301430Z AUTO 32005KT 270V350 9999 BKN009 OVC041 14/12 Q1018 TEMPO 3000 RA BKN004
4:00 pm
L
55 °F 6¼ mi+ 400 ft 310° 310° 6 kt METAR LFLW 301400Z AUTO 31006KT 250V360 9999 OVC004 13/12 Q1017 TEMPO 3000 RA BKN008
3:30 pm
I
55 °F 3 mi 500 ft 290° 290° 6 kt METAR LFLW 301330Z AUTO 29006KT 250V320 9999 4900 BKN005 OVC011 13/11 Q1017 TEMPO 3000 RA
3:00 pm
I
55 °F 6¼ mi+ 900 ft 300° 300° 6 kt METAR LFLW 301300Z AUTO 30006KT 250V350 9999 OVC009 13/12 Q1017 TEMPO 3000 RA BKN012
2:30 pm
I
55 °F 6¼ mi+ 600 ft 300° 300° 6 kt METAR LFLW 301230Z AUTO 30006KT 250V340 9999 BKN006 OVC013 13/12 Q1017 TEMPO 3000 RA BKN012
2:00 pm
I
55 °F 6¼ mi+ 600 ft 300° 300° 6 kt METAR LFLW 301200Z AUTO 30006KT 250V350 9999 BKN006 BKN010 OVC016 13/12 Q1017 BECMG BKN012
1:30 pm
I
55 °F 6¼ mi+ 600 ft 290° 290° 5 kt METAR LFLW 301130Z AUTO 29005KT 240V320 9999 OVC006 13/11 Q1016 BECMG BKN012
1:00 pm
I
55 °F 6¼ mi+ 500 ft 290° 290° 6 kt METAR LFLW 301100Z AUTO 29006KT 240V330 9999 BKN005 OVC017 13/12 Q1016 BECMG BKN012
12:30 pm
L
55 °F 4⅜ mi 400 ft 300° 300° 6 kt METAR LFLW 301030Z AUTO 30006KT 260V350 7000 OVC004 13/12 Q1016 BECMG BKN012
12:00 pm
L
55 °F 3¾ mi 300 ft 280° 280° 6 kt METAR LFLW 301000Z AUTO 28006KT 230V340 6000 OVC003 13/12 Q1016 TEMPO 2000 BR BECMG BKN012
11:30 am
L
57 °F 2⅝ mi 200 ft 290° 290° 6 kt METAR LFLW 300930Z AUTO 29006KT 250V320 4200 BR OVC002 14/13 Q1015 BECMG 9999 NSW BKN012
11:00 am
L
57 °F 2½ mi 300 ft 320° 320° 5 kt METAR LFLW 300900Z AUTO 32005KT 290V360 4000 BR OVC003 14/13 Q1015 BECMG 9999 NSW BKN012
10:30 am
L
59 °F 5 mi 400 ft 220° 220° 4 kt METAR LFLW 300830Z AUTO 22004KT 160V270 8000 OVC004 15/14 Q1015 BECMG BKN012
10:00 am
I
59 °F 6¼ mi+ 500 ft 190° 190° 4 kt METAR LFLW 300800Z AUTO 19004KT 150V240 9999 BKN005 OVC010 15/14 Q1014 TEMPO 0600 FG VV///
9:30 am
I
59 °F 6¼ mi+ 600 ft 240° 240° 6 kt METAR LFLW 300730Z AUTO 24006KT 180V270 9999 BKN006 OVC010 15/14 Q1014 TEMPO 0600 FG VV///
Dati più vecchi

Scarica la nostra applicazione

Facile accesso a tutte le previsioni dell'aviazione sul tuo cellulare e tablet.
Con molte caratteristiche non disponibili sul sito web, come il supporto offline e una lista personale di aeroporti.

Noi e le terze parti seguiamo il tuo comportamento in internet sul nostro sito web con i cookie. Se continui, riteniamo che tu sia d'accordo con la nostra politica sui cookie. Per saperne di più